sensor_id;sensor_type;location;lat;lon;timestamp;P1;durP1;ratioP1;P2;durP2;ratioP2
68192;SDS011;55012;47.562;18.414;2023-11-21T00:02:13;12.50;;;6.45;;
68192;SDS011;55012;47.562;18.414;2023-11-21T00:04:38;13.50;;;6.90;;
68192;SDS011;55012;47.562;18.414;2023-11-21T00:07:04;13.27;;;7.30;;
68192;SDS011;55012;47.562;18.414;2023-11-21T00:09:31;14.43;;;7.90;;
68192;SDS011;55012;47.562;18.414;2023-11-21T00:11:57;16.42;;;8.10;;
68192;SDS011;55012;47.562;18.414;2023-11-21T00:14:24;14.85;;;7.25;;
68192;SDS011;55012;47.562;18.414;2023-11-21T00:16:49;16.73;;;7.05;;
68192;SDS011;55012;47.562;18.414;2023-11-21T00:19:15;14.20;;;7.15;;
68192;SDS011;55012;47.562;18.414;2023-11-21T00:21:41;11.95;;;6.60;;
68192;SDS011;55012;47.562;18.414;2023-11-21T00:24:09;13.80;;;7.30;;
68192;SDS011;55012;47.562;18.414;2023-11-21T00:26:35;16.38;;;7.72;;
68192;SDS011;55012;47.562;18.414;2023-11-21T00:29:02;16.00;;;7.32;;
68192;SDS011;55012;47.562;18.414;2023-11-21T00:31:27;13.00;;;6.53;;
68192;SDS011;55012;47.562;18.414;2023-11-21T00:33:53;14.25;;;7.03;;
68192;SDS011;55012;47.562;18.414;2023-11-21T00:36:19;13.35;;;6.80;;
68192;SDS011;55012;47.562;18.414;2023-11-21T00:38:45;11.35;;;6.40;;
68192;SDS011;55012;47.562;18.414;2023-11-21T00:41:10;13.70;;;7.00;;
68192;SDS011;55012;47.562;18.414;2023-11-21T00:43:36;14.30;;;7.40;;
68192;SDS011;55012;47.562;18.414;2023-11-21T00:46:04;13.88;;;7.10;;
68192;SDS011;55012;47.562;18.414;2023-11-21T00:48:32;13.60;;;7.70;;
68192;SDS011;55012;47.562;18.414;2023-11-21T00:50:58;15.13;;;8.23;;
68192;SDS011;55012;47.562;18.414;2023-11-21T00:53:24;15.68;;;8.80;;
68192;SDS011;55012;47.562;18.414;2023-11-21T00:55:49;13.02;;;7.78;;
68192;SDS011;55012;47.562;18.414;2023-11-21T00:58:17;18.45;;;9.45;;
68192;SDS011;55012;47.562;18.414;2023-11-21T01:00:42;19.65;;;9.27;;
68192;SDS011;55012;47.562;18.414;2023-11-21T01:03:08;15.68;;;8.00;;
68192;SDS011;55012;47.562;18.414;2023-11-21T01:05:34;13.88;;;6.65;;
68192;SDS011;55012;47.562;18.414;2023-11-21T01:07:59;13.82;;;7.43;;
68192;SDS011;55012;47.562;18.414;2023-11-21T01:10:25;16.30;;;6.80;;
68192;SDS011;55012;47.562;18.414;2023-11-21T01:12:50;13.05;;;7.13;;
68192;SDS011;55012;47.562;18.414;2023-11-21T01:15:16;13.63;;;6.93;;
68192;SDS011;55012;47.562;18.414;2023-11-21T01:17:41;13.50;;;7.07;;
68192;SDS011;55012;47.562;18.414;2023-11-21T01:20:07;14.43;;;7.13;;
68192;SDS011;55012;47.562;18.414;2023-11-21T01:22:37;14.55;;;7.50;;
68192;SDS011;55012;47.562;18.414;2023-11-21T01:25:03;15.60;;;7.53;;
68192;SDS011;55012;47.562;18.414;2023-11-21T01:27:36;14.85;;;7.55;;
68192;SDS011;55012;47.562;18.414;2023-11-21T01:30:05;16.08;;;8.20;;
68192;SDS011;55012;47.562;18.414;2023-11-21T01:32:32;18.08;;;7.90;;
68192;SDS011;55012;47.562;18.414;2023-11-21T01:34:59;14.90;;;8.45;;
68192;SDS011;55012;47.562;18.414;2023-11-21T01:37:25;17.45;;;7.95;;
68192;SDS011;55012;47.562;18.414;2023-11-21T01:39:52;15.63;;;8.13;;
68192;SDS011;55012;47.562;18.414;2023-11-21T01:42:20;15.05;;;8.13;;
68192;SDS011;55012;47.562;18.414;2023-11-21T01:44:46;13.65;;;7.93;;
68192;SDS011;55012;47.562;18.414;2023-11-21T01:47:11;15.05;;;7.93;;
68192;SDS011;55012;47.562;18.414;2023-11-21T01:49:38;14.90;;;8.27;;
68192;SDS011;55012;47.562;18.414;2023-11-21T01:52:04;15.63;;;7.75;;
68192;SDS011;55012;47.562;18.414;2023-11-21T01:54:30;16.35;;;8.00;;
68192;SDS011;55012;47.562;18.414;2023-11-21T01:56:57;13.20;;;6.95;;
68192;SDS011;55012;47.562;18.414;2023-11-21T01:59:28;15.88;;;8.18;;
68192;SDS011;55012;47.562;18.414;2023-11-21T02:01:59;16.05;;;8.02;;
68192;SDS011;55012;47.562;18.414;2023-11-21T02:04:25;15.70;;;7.47;;
68192;SDS011;55012;47.562;18.414;2023-11-21T02:06:50;12.77;;;7.30;;
68192;SDS011;55012;47.562;18.414;2023-11-21T02:09:16;15.48;;;7.47;;
68192;SDS011;55012;47.562;18.414;2023-11-21T02:11:43;11.63;;;6.85;;
68192;SDS011;55012;47.562;18.414;2023-11-21T02:14:09;12.65;;;7.05;;
68192;SDS011;55012;47.562;18.414;2023-11-21T02:16:35;11.63;;;6.47;;
68192;SDS011;55012;47.562;18.414;2023-11-21T02:19:02;13.82;;;7.38;;
68192;SDS011;55012;47.562;18.414;2023-11-21T02:21:31;12.30;;;6.60;;
68192;SDS011;55012;47.562;18.414;2023-11-21T02:23:57;13.73;;;6.97;;
68192;SDS011;55012;47.562;18.414;2023-11-21T02:26:23;12.98;;;7.15;;
68192;SDS011;55012;47.562;18.414;2023-11-21T02:28:51;15.38;;;7.65;;
68192;SDS011;55012;47.562;18.414;2023-11-21T02:31:18;14.35;;;7.10;;
68192;SDS011;55012;47.562;18.414;2023-11-21T02:33:44;13.57;;;7.25;;
68192;SDS011;55012;47.562;18.414;2023-11-21T02:36:09;15.02;;;7.50;;
68192;SDS011;55012;47.562;18.414;2023-11-21T02:38:35;13.20;;;6.85;;
68192;SDS011;55012;47.562;18.414;2023-11-21T02:41:00;16.85;;;7.30;;
68192;SDS011;55012;47.562;18.414;2023-11-21T02:43:26;12.35;;;6.53;;
68192;SDS011;55012;47.562;18.414;2023-11-21T02:45:51;12.15;;;7.03;;
68192;SDS011;55012;47.562;18.414;2023-11-21T02:48:16;11.75;;;6.68;;
68192;SDS011;55012;47.562;18.414;2023-11-21T02:50:42;14.70;;;6.65;;
68192;SDS011;55012;47.562;18.414;2023-11-21T02:53:08;13.90;;;6.88;;
68192;SDS011;55012;47.562;18.414;2023-11-21T02:55:35;12.13;;;6.57;;
68192;SDS011;55012;47.562;18.414;2023-11-21T02:58:01;11.13;;;6.55;;
68192;SDS011;55012;47.562;18.414;2023-11-21T03:00:29;13.82;;;7.03;;
68192;SDS011;55012;47.562;18.414;2023-11-21T03:02:55;14.68;;;7.13;;
68192;SDS011;55012;47.562;18.414;2023-11-21T03:05:21;12.77;;;6.60;;
68192;SDS011;55012;47.562;18.414;2023-11-21T03:07:46;12.13;;;6.80;;
68192;SDS011;55012;47.562;18.414;2023-11-21T03:10:12;13.82;;;7.47;;
68192;SDS011;55012;47.562;18.414;2023-11-21T03:12:38;14.05;;;7.55;;
68192;SDS011;55012;47.562;18.414;2023-11-21T03:15:05;13.02;;;7.43;;
68192;SDS011;55012;47.562;18.414;2023-11-21T03:17:31;13.60;;;6.70;;
68192;SDS011;55012;47.562;18.414;2023-11-21T03:19:58;21.63;;;9.98;;
68192;SDS011;55012;47.562;18.414;2023-11-21T03:22:24;24.27;;;11.48;;
68192;SDS011;55012;47.562;18.414;2023-11-21T03:24:50;34.55;;;12.35;;
68192;SDS011;55012;47.562;18.414;2023-11-21T03:27:16;20.67;;;9.18;;
68192;SDS011;55012;47.562;18.414;2023-11-21T03:29:41;21.27;;;9.73;;
68192;SDS011;55012;47.562;18.414;2023-11-21T03:32:07;18.75;;;9.13;;
68192;SDS011;55012;47.562;18.414;2023-11-21T03:34:32;21.88;;;9.93;;
68192;SDS011;55012;47.562;18.414;2023-11-21T03:36:57;22.15;;;10.43;;
68192;SDS011;55012;47.562;18.414;2023-11-21T03:39:23;16.17;;;8.63;;
68192;SDS011;55012;47.562;18.414;2023-11-21T03:41:50;17.85;;;8.75;;
68192;SDS011;55012;47.562;18.414;2023-11-21T03:44:17;19.13;;;9.10;;
68192;SDS011;55012;47.562;18.414;2023-11-21T03:46:43;14.27;;;7.75;;
68192;SDS011;55012;47.562;18.414;2023-11-21T03:49:09;17.00;;;8.70;;
68192;SDS011;55012;47.562;18.414;2023-11-21T03:51:38;14.98;;;7.57;;
68192;SDS011;55012;47.562;18.414;2023-11-21T03:54:04;12.63;;;7.07;;
68192;SDS011;55012;47.562;18.414;2023-11-21T03:56:29;12.30;;;6.97;;
68192;SDS011;55012;47.562;18.414;2023-11-21T03:58:55;22.08;;;9.38;;
68192;SDS011;55012;47.562;18.414;2023-11-21T04:01:23;22.45;;;9.60;;
68192;SDS011;55012;47.562;18.414;2023-11-21T04:03:50;22.85;;;10.88;;
68192;SDS011;55012;47.562;18.414;2023-11-21T04:06:16;21.95;;;10.20;;
68192;SDS011;55012;47.562;18.414;2023-11-21T04:08:43;23.83;;;10.15;;
68192;SDS011;55012;47.562;18.414;2023-11-21T04:11:09;19.30;;;9.88;;
68192;SDS011;55012;47.562;18.414;2023-11-21T04:13:37;20.35;;;9.43;;
68192;SDS011;55012;47.562;18.414;2023-11-21T04:16:03;16.98;;;9.07;;
68192;SDS011;55012;47.562;18.414;2023-11-21T04:18:31;17.77;;;9.63;;
68192;SDS011;55012;47.562;18.414;2023-11-21T04:20:56;16.15;;;8.32;;
68192;SDS011;55012;47.562;18.414;2023-11-21T04:23:22;17.63;;;8.70;;
68192;SDS011;55012;47.562;18.414;2023-11-21T04:25:47;19.92;;;9.25;;
68192;SDS011;55012;47.562;18.414;2023-11-21T04:28:13;15.80;;;8.02;;
68192;SDS011;55012;47.562;18.414;2023-11-21T04:30:38;11.55;;;6.22;;
68192;SDS011;55012;47.562;18.414;2023-11-21T04:33:04;15.90;;;8.02;;
68192;SDS011;55012;47.562;18.414;2023-11-21T04:35:30;19.67;;;9.55;;
68192;SDS011;55012;47.562;18.414;2023-11-21T04:37:55;20.45;;;9.45;;
68192;SDS011;55012;47.562;18.414;2023-11-21T04:40:22;20.60;;;10.30;;
68192;SDS011;55012;47.562;18.414;2023-11-21T04:42:48;17.02;;;9.10;;
68192;SDS011;55012;47.562;18.414;2023-11-21T04:45:13;19.50;;;9.68;;
68192;SDS011;55012;47.562;18.414;2023-11-21T04:47:39;21.88;;;11.38;;
68192;SDS011;55012;47.562;18.414;2023-11-21T04:50:04;17.05;;;8.18;;
68192;SDS011;55012;47.562;18.414;2023-11-21T04:52:31;23.90;;;12.25;;
68192;SDS011;55012;47.562;18.414;2023-11-21T04:54:58;16.35;;;7.97;;
68192;SDS011;55012;47.562;18.414;2023-11-21T04:57:24;14.60;;;7.78;;
68192;SDS011;55012;47.562;18.414;2023-11-21T04:59:49;19.50;;;9.25;;
68192;SDS011;55012;47.562;18.414;2023-11-21T05:02:15;24.13;;;10.60;;
68192;SDS011;55012;47.562;18.414;2023-11-21T05:04:41;22.30;;;10.80;;
68192;SDS011;55012;47.562;18.414;2023-11-21T05:07:08;19.80;;;9.60;;
68192;SDS011;55012;47.562;18.414;2023-11-21T05:09:33;18.58;;;9.30;;
68192;SDS011;55012;47.562;18.414;2023-11-21T05:11:59;19.65;;;9.18;;
68192;SDS011;55012;47.562;18.414;2023-11-21T05:14:25;19.10;;;8.43;;
68192;SDS011;55012;47.562;18.414;2023-11-21T05:16:50;17.95;;;8.40;;
68192;SDS011;55012;47.562;18.414;2023-11-21T05:19:17;23.27;;;10.88;;
68192;SDS011;55012;47.562;18.414;2023-11-21T05:21:42;33.30;;;16.60;;
68192;SDS011;55012;47.562;18.414;2023-11-21T05:24:08;33.17;;;16.13;;
68192;SDS011;55012;47.562;18.414;2023-11-21T05:26:34;26.02;;;13.18;;
68192;SDS011;55012;47.562;18.414;2023-11-21T05:29:00;25.88;;;12.93;;
68192;SDS011;55012;47.562;18.414;2023-11-21T05:31:25;30.17;;;14.27;;
68192;SDS011;55012;47.562;18.414;2023-11-21T05:33:52;30.42;;;14.07;;
68192;SDS011;55012;47.562;18.414;2023-11-21T05:36:18;25.30;;;14.00;;
68192;SDS011;55012;47.562;18.414;2023-11-21T05:38:43;31.80;;;16.50;;
68192;SDS011;55012;47.562;18.414;2023-11-21T05:41:09;27.27;;;13.48;;
68192;SDS011;55012;47.562;18.414;2023-11-21T05:43:38;30.15;;;16.40;;
68192;SDS011;55012;47.562;18.414;2023-11-21T05:46:04;23.35;;;11.77;;
68192;SDS011;55012;47.562;18.414;2023-11-21T05:48:32;41.63;;;20.58;;
68192;SDS011;55012;47.562;18.414;2023-11-21T05:50:57;38.60;;;19.42;;
68192;SDS011;55012;47.562;18.414;2023-11-21T05:53:24;41.05;;;21.17;;
68192;SDS011;55012;47.562;18.414;2023-11-21T05:55:49;43.22;;;22.60;;
68192;SDS011;55012;47.562;18.414;2023-11-21T05:58:15;48.75;;;24.55;;
68192;SDS011;55012;47.562;18.414;2023-11-21T06:00:40;34.55;;;14.85;;
68192;SDS011;55012;47.562;18.414;2023-11-21T06:03:06;25.83;;;12.90;;
68192;SDS011;55012;47.562;18.414;2023-11-21T06:05:33;27.35;;;11.95;;
68192;SDS011;55012;47.562;18.414;2023-11-21T06:07:58;12.70;;;6.50;;
68192;SDS011;55012;47.562;18.414;2023-11-21T06:10:24;17.17;;;8.00;;
68192;SDS011;55012;47.562;18.414;2023-11-21T06:12:50;21.58;;;10.15;;
68192;SDS011;55012;47.562;18.414;2023-11-21T06:15:16;17.88;;;7.63;;
68192;SDS011;55012;47.562;18.414;2023-11-21T06:17:44;16.13;;;7.97;;
68192;SDS011;55012;47.562;18.414;2023-11-21T06:20:14;14.23;;;6.40;;
68192;SDS011;55012;47.562;18.414;2023-11-21T06:22:41;17.35;;;7.00;;
68192;SDS011;55012;47.562;18.414;2023-11-21T06:25:08;24.02;;;10.98;;
68192;SDS011;55012;47.562;18.414;2023-11-21T06:27:34;27.10;;;10.85;;
68192;SDS011;55012;47.562;18.414;2023-11-21T06:30:03;26.33;;;11.57;;
68192;SDS011;55012;47.562;18.414;2023-11-21T06:32:29;31.70;;;14.50;;
68192;SDS011;55012;47.562;18.414;2023-11-21T06:34:55;41.22;;;18.90;;
68192;SDS011;55012;47.562;18.414;2023-11-21T06:37:24;39.13;;;17.33;;
68192;SDS011;55012;47.562;18.414;2023-11-21T06:39:51;39.40;;;18.00;;
68192;SDS011;55012;47.562;18.414;2023-11-21T06:42:17;30.83;;;15.38;;
68192;SDS011;55012;47.562;18.414;2023-11-21T06:44:44;40.60;;;17.95;;
68192;SDS011;55012;47.562;18.414;2023-11-21T06:47:10;31.58;;;15.05;;
68192;SDS011;55012;47.562;18.414;2023-11-21T06:49:36;24.05;;;12.10;;
68192;SDS011;55012;47.562;18.414;2023-11-21T06:52:03;28.00;;;13.30;;
68192;SDS011;55012;47.562;18.414;2023-11-21T06:54:30;36.25;;;15.00;;
68192;SDS011;55012;47.562;18.414;2023-11-21T06:56:56;27.60;;;12.55;;
68192;SDS011;55012;47.562;18.414;2023-11-21T06:59:22;28.95;;;12.48;;
68192;SDS011;55012;47.562;18.414;2023-11-21T07:01:48;34.50;;;14.57;;
68192;SDS011;55012;47.562;18.414;2023-11-21T07:04:14;31.35;;;14.63;;
68192;SDS011;55012;47.562;18.414;2023-11-21T07:06:40;44.95;;;18.58;;
68192;SDS011;55012;47.562;18.414;2023-11-21T07:09:06;26.02;;;12.38;;
68192;SDS011;55012;47.562;18.414;2023-11-21T07:11:33;18.08;;;8.80;;
68192;SDS011;55012;47.562;18.414;2023-11-21T07:13:59;13.68;;;7.20;;
68192;SDS011;55012;47.562;18.414;2023-11-21T07:16:27;13.82;;;6.63;;
68192;SDS011;55012;47.562;18.414;2023-11-21T07:18:55;18.73;;;8.52;;
68192;SDS011;55012;47.562;18.414;2023-11-21T07:21:21;16.27;;;6.90;;
68192;SDS011;55012;47.562;18.414;2023-11-21T07:23:46;15.80;;;7.30;;
68192;SDS011;55012;47.562;18.414;2023-11-21T07:26:12;15.20;;;7.30;;
68192;SDS011;55012;47.562;18.414;2023-11-21T07:28:37;19.40;;;9.30;;
68192;SDS011;55012;47.562;18.414;2023-11-21T07:31:03;25.98;;;11.85;;
68192;SDS011;55012;47.562;18.414;2023-11-21T07:33:28;26.85;;;12.35;;
68192;SDS011;55012;47.562;18.414;2023-11-21T07:35:54;19.85;;;10.30;;
68192;SDS011;55012;47.562;18.414;2023-11-21T07:38:19;20.02;;;9.65;;
68192;SDS011;55012;47.562;18.414;2023-11-21T07:40:44;17.30;;;9.40;;
68192;SDS011;55012;47.562;18.414;2023-11-21T07:43:10;19.45;;;9.77;;
68192;SDS011;55012;47.562;18.414;2023-11-21T07:45:35;15.75;;;7.90;;
68192;SDS011;55012;47.562;18.414;2023-11-21T07:48:01;23.23;;;11.60;;
68192;SDS011;55012;47.562;18.414;2023-11-21T07:50:28;23.52;;;11.32;;
68192;SDS011;55012;47.562;18.414;2023-11-21T07:52:54;20.67;;;9.65;;
68192;SDS011;55012;47.562;18.414;2023-11-21T07:55:20;24.30;;;11.55;;
68192;SDS011;55012;47.562;18.414;2023-11-21T07:57:46;34.35;;;14.80;;
68192;SDS011;55012;47.562;18.414;2023-11-21T08:00:12;30.30;;;13.93;;
68192;SDS011;55012;47.562;18.414;2023-11-21T08:02:40;30.30;;;14.50;;
68192;SDS011;55012;47.562;18.414;2023-11-21T08:05:11;29.90;;;14.00;;
68192;SDS011;55012;47.562;18.414;2023-11-21T08:07:37;26.75;;;13.75;;
68192;SDS011;55012;47.562;18.414;2023-11-21T08:10:03;29.67;;;14.20;;
68192;SDS011;55012;47.562;18.414;2023-11-21T08:12:32;26.45;;;13.60;;
68192;SDS011;55012;47.562;18.414;2023-11-21T08:14:57;28.02;;;14.02;;
68192;SDS011;55012;47.562;18.414;2023-11-21T08:17:22;22.60;;;11.00;;
68192;SDS011;55012;47.562;18.414;2023-11-21T08:19:48;16.08;;;7.88;;
68192;SDS011;55012;47.562;18.414;2023-11-21T08:22:16;21.23;;;10.65;;
68192;SDS011;55012;47.562;18.414;2023-11-21T08:24:43;25.60;;;10.77;;
68192;SDS011;55012;47.562;18.414;2023-11-21T08:27:09;33.05;;;16.45;;
68192;SDS011;55012;47.562;18.414;2023-11-21T08:29:34;31.83;;;14.18;;
68192;SDS011;55012;47.562;18.414;2023-11-21T08:32:01;28.38;;;12.95;;
68192;SDS011;55012;47.562;18.414;2023-11-21T08:34:27;19.17;;;10.45;;
68192;SDS011;55012;47.562;18.414;2023-11-21T08:36:53;16.85;;;7.93;;
68192;SDS011;55012;47.562;18.414;2023-11-21T08:39:19;16.15;;;8.35;;
68192;SDS011;55012;47.562;18.414;2023-11-21T08:41:44;27.67;;;11.35;;
68192;SDS011;55012;47.562;18.414;2023-11-21T08:44:10;23.95;;;11.75;;
68192;SDS011;55012;47.562;18.414;2023-11-21T08:46:36;22.05;;;10.88;;
68192;SDS011;55012;47.562;18.414;2023-11-21T08:49:03;20.40;;;9.90;;
68192;SDS011;55012;47.562;18.414;2023-11-21T08:51:29;23.35;;;12.07;;
68192;SDS011;55012;47.562;18.414;2023-11-21T08:53:54;19.70;;;9.93;;
68192;SDS011;55012;47.562;18.414;2023-11-21T08:56:24;14.52;;;7.72;;
68192;SDS011;55012;47.562;18.414;2023-11-21T08:58:50;24.42;;;12.60;;
68192;SDS011;55012;47.562;18.414;2023-11-21T09:01:15;25.27;;;13.52;;
68192;SDS011;55012;47.562;18.414;2023-11-21T09:03:41;20.90;;;10.82;;
68192;SDS011;55012;47.562;18.414;2023-11-21T09:06:06;22.38;;;12.18;;
68192;SDS011;55012;47.562;18.414;2023-11-21T09:08:34;38.30;;;18.52;;
68192;SDS011;55012;47.562;18.414;2023-11-21T09:11:00;59.83;;;27.00;;
68192;SDS011;55012;47.562;18.414;2023-11-21T09:13:25;57.35;;;28.67;;
68192;SDS011;55012;47.562;18.414;2023-11-21T09:15:51;53.40;;;28.23;;
68192;SDS011;55012;47.562;18.414;2023-11-21T09:18:16;51.50;;;24.75;;
68192;SDS011;55012;47.562;18.414;2023-11-21T09:20:42;42.47;;;22.80;;
68192;SDS011;55012;47.562;18.414;2023-11-21T09:23:09;31.92;;;15.98;;
68192;SDS011;55012;47.562;18.414;2023-11-21T09:25:35;34.05;;;16.48;;
68192;SDS011;55012;47.562;18.414;2023-11-21T09:28:02;30.95;;;14.88;;
68192;SDS011;55012;47.562;18.414;2023-11-21T09:30:33;32.50;;;15.90;;
68192;SDS011;55012;47.562;18.414;2023-11-21T09:33:00;38.88;;;17.20;;
68192;SDS011;55012;47.562;18.414;2023-11-21T09:35:26;32.47;;;16.67;;
68192;SDS011;55012;47.562;18.414;2023-11-21T09:37:53;28.88;;;15.88;;
68192;SDS011;55012;47.562;18.414;2023-11-21T09:40:20;32.67;;;15.85;;
68192;SDS011;55012;47.562;18.414;2023-11-21T09:42:54;32.97;;;16.38;;
68192;SDS011;55012;47.562;18.414;2023-11-21T09:45:28;37.40;;;16.83;;
68192;SDS011;55012;47.562;18.414;2023-11-21T09:47:56;33.45;;;16.85;;
68192;SDS011;55012;47.562;18.414;2023-11-21T09:50:22;37.42;;;19.30;;
68192;SDS011;55012;47.562;18.414;2023-11-21T09:55:14;31.38;;;16.50;;
68192;SDS011;55012;47.562;18.414;2023-11-21T09:57:45;42.60;;;19.60;;
68192;SDS011;55012;47.562;18.414;2023-11-21T10:00:10;37.00;;;17.42;;
68192;SDS011;55012;47.562;18.414;2023-11-21T10:02:37;39.38;;;19.65;;
68192;SDS011;55012;47.562;18.414;2023-11-21T10:05:06;48.53;;;22.63;;
68192;SDS011;55012;47.562;18.414;2023-11-21T10:07:32;62.42;;;26.88;;
68192;SDS011;55012;47.562;18.414;2023-11-21T10:10:00;48.20;;;21.48;;
68192;SDS011;55012;47.562;18.414;2023-11-21T10:12:26;48.60;;;22.83;;
68192;SDS011;55012;47.562;18.414;2023-11-21T10:14:53;45.60;;;22.10;;
68192;SDS011;55012;47.562;18.414;2023-11-21T10:17:22;45.55;;;21.67;;
68192;SDS011;55012;47.562;18.414;2023-11-21T10:19:51;50.00;;;23.02;;
68192;SDS011;55012;47.562;18.414;2023-11-21T10:22:19;49.15;;;24.10;;
68192;SDS011;55012;47.562;18.414;2023-11-21T10:24:45;48.88;;;24.38;;
68192;SDS011;55012;47.562;18.414;2023-11-21T10:27:11;36.92;;;19.13;;
68192;SDS011;55012;47.562;18.414;2023-11-21T10:29:38;31.88;;;16.15;;
68192;SDS011;55012;47.562;18.414;2023-11-21T10:32:04;22.52;;;11.07;;
68192;SDS011;55012;47.562;18.414;2023-11-21T10:34:30;23.63;;;10.20;;
68192;SDS011;55012;47.562;18.414;2023-11-21T10:36:56;21.02;;;10.95;;
68192;SDS011;55012;47.562;18.414;2023-11-21T10:39:23;15.55;;;7.90;;
68192;SDS011;55012;47.562;18.414;2023-11-21T10:41:52;17.00;;;8.40;;
68192;SDS011;55012;47.562;18.414;2023-11-21T10:44:20;15.25;;;7.75;;
68192;SDS011;55012;47.562;18.414;2023-11-21T10:46:55;17.20;;;8.00;;
68192;SDS011;55012;47.562;18.414;2023-11-21T10:49:21;17.60;;;8.80;;
68192;SDS011;55012;47.562;18.414;2023-11-21T10:51:50;20.05;;;8.45;;
68192;SDS011;55012;47.562;18.414;2023-11-21T10:54:18;14.77;;;7.75;;
68192;SDS011;55012;47.562;18.414;2023-11-21T10:56:45;15.95;;;8.23;;
68192;SDS011;55012;47.562;18.414;2023-11-21T10:59:15;19.90;;;9.82;;
68192;SDS011;55012;47.562;18.414;2023-11-21T11:01:42;20.13;;;9.95;;
68192;SDS011;55012;47.562;18.414;2023-11-21T11:04:09;18.55;;;9.57;;
68192;SDS011;55012;47.562;18.414;2023-11-21T11:06:44;21.42;;;10.35;;
68192;SDS011;55012;47.562;18.414;2023-11-21T11:09:16;22.50;;;12.30;;
68192;SDS011;55012;47.562;18.414;2023-11-21T11:11:42;28.65;;;12.38;;
68192;SDS011;55012;47.562;18.414;2023-11-21T11:14:12;23.08;;;12.13;;
68192;SDS011;55012;47.562;18.414;2023-11-21T11:16:39;22.48;;;12.13;;
68192;SDS011;55012;47.562;18.414;2023-11-21T11:19:11;22.55;;;12.75;;
68192;SDS011;55012;47.562;18.414;2023-11-21T11:25:13;21.75;;;12.40;;
68192;SDS011;55012;47.562;18.414;2023-11-21T11:30:20;22.40;;;12.25;;
68192;SDS011;55012;47.562;18.414;2023-11-21T11:38:16;27.33;;;14.38;;
68192;SDS011;55012;47.562;18.414;2023-11-21T11:40:46;20.15;;;10.10;;
68192;SDS011;55012;47.562;18.414;2023-11-21T11:43:12;15.30;;;7.47;;
68192;SDS011;55012;47.562;18.414;2023-11-21T11:45:38;13.77;;;6.75;;
68192;SDS011;55012;47.562;18.414;2023-11-21T11:48:07;12.60;;;6.30;;
68192;SDS011;55012;47.562;18.414;2023-11-21T11:50:33;15.55;;;6.35;;
68192;SDS011;55012;47.562;18.414;2023-11-21T11:53:12;12.55;;;6.55;;
68192;SDS011;55012;47.562;18.414;2023-11-21T11:55:38;14.05;;;7.65;;
68192;SDS011;55012;47.562;18.414;2023-11-21T11:58:05;14.90;;;7.82;;
68192;SDS011;55012;47.562;18.414;2023-11-21T12:02:58;22.15;;;10.10;;
68192;SDS011;55012;47.562;18.414;2023-11-21T12:05:28;13.45;;;7.32;;
68192;SDS011;55012;47.562;18.414;2023-11-21T12:07:58;14.63;;;7.03;;
68192;SDS011;55012;47.562;18.414;2023-11-21T12:10:26;14.30;;;7.05;;
68192;SDS011;55012;47.562;18.414;2023-11-21T12:12:54;16.38;;;6.88;;
68192;SDS011;55012;47.562;18.414;2023-11-21T12:15:22;14.93;;;7.53;;
68192;SDS011;55012;47.562;18.414;2023-11-21T12:17:48;16.15;;;8.02;;
68192;SDS011;55012;47.562;18.414;2023-11-21T12:20:14;17.35;;;7.97;;
68192;SDS011;55012;47.562;18.414;2023-11-21T12:22:44;14.18;;;7.07;;
68192;SDS011;55012;47.562;18.414;2023-11-21T12:25:17;16.23;;;7.70;;
68192;SDS011;55012;47.562;18.414;2023-11-21T12:27:45;17.83;;;8.35;;
68192;SDS011;55012;47.562;18.414;2023-11-21T12:30:12;17.52;;;7.57;;
68192;SDS011;55012;47.562;18.414;2023-11-21T12:32:41;17.77;;;8.00;;
68192;SDS011;55012;47.562;18.414;2023-11-21T12:35:08;14.32;;;6.97;;
68192;SDS011;55012;47.562;18.414;2023-11-21T12:37:38;14.88;;;6.82;;
68192;SDS011;55012;47.562;18.414;2023-11-21T12:40:08;16.15;;;7.63;;
68192;SDS011;55012;47.562;18.414;2023-11-21T12:42:37;15.23;;;7.60;;
68192;SDS011;55012;47.562;18.414;2023-11-21T12:47:46;11.98;;;7.00;;
68192;SDS011;55012;47.562;18.414;2023-11-21T12:50:18;16.40;;;7.45;;
68192;SDS011;55012;47.562;18.414;2023-11-21T12:52:48;16.52;;;8.00;;
68192;SDS011;55012;47.562;18.414;2023-11-21T12:55:18;13.43;;;7.47;;
68192;SDS011;55012;47.562;18.414;2023-11-21T12:57:54;14.07;;;6.50;;
68192;SDS011;55012;47.562;18.414;2023-11-21T13:01:06;12.55;;;6.38;;
68192;SDS011;55012;47.562;18.414;2023-11-21T13:03:14;13.35;;;6.22;;
68192;SDS011;55012;47.562;18.414;2023-11-21T13:05:43;12.02;;;6.03;;
68192;SDS011;55012;47.562;18.414;2023-11-21T13:08:10;10.80;;;6.20;;
68192;SDS011;55012;47.562;18.414;2023-11-21T13:10:41;12.18;;;6.38;;
68192;SDS011;55012;47.562;18.414;2023-11-21T13:13:11;12.40;;;6.15;;
68192;SDS011;55012;47.562;18.414;2023-11-21T13:15:48;13.55;;;6.90;;
68192;SDS011;55012;47.562;18.414;2023-11-21T13:18:14;15.93;;;7.45;;
68192;SDS011;55012;47.562;18.414;2023-11-21T13:20:40;15.15;;;6.93;;
68192;SDS011;55012;47.562;18.414;2023-11-21T13:23:08;14.52;;;7.22;;
68192;SDS011;55012;47.562;18.414;2023-11-21T13:25:36;16.30;;;7.82;;
68192;SDS011;55012;47.562;18.414;2023-11-21T13:28:04;16.48;;;7.72;;
68192;SDS011;55012;47.562;18.414;2023-11-21T13:30:30;13.40;;;7.97;;
68192;SDS011;55012;47.562;18.414;2023-11-21T13:32:59;15.35;;;7.50;;
68192;SDS011;55012;47.562;18.414;2023-11-21T13:35:31;16.15;;;8.23;;
68192;SDS011;55012;47.562;18.414;2023-11-21T13:38:10;15.27;;;8.23;;
68192;SDS011;55012;47.562;18.414;2023-11-21T13:40:37;17.80;;;7.88;;
68192;SDS011;55012;47.562;18.414;2023-11-21T13:43:14;22.63;;;9.00;;
68192;SDS011;55012;47.562;18.414;2023-11-21T13:45:42;17.13;;;7.70;;
68192;SDS011;55012;47.562;18.414;2023-11-21T13:48:09;13.43;;;7.30;;
68192;SDS011;55012;47.562;18.414;2023-11-21T13:50:41;16.25;;;7.28;;
68192;SDS011;55012;47.562;18.414;2023-11-21T13:53:20;14.15;;;7.45;;
68192;SDS011;55012;47.562;18.414;2023-11-21T13:55:49;15.32;;;7.93;;
68192;SDS011;55012;47.562;18.414;2023-11-21T13:58:16;18.80;;;8.40;;
68192;SDS011;55012;47.562;18.414;2023-11-21T14:00:48;18.08;;;8.93;;
68192;SDS011;55012;47.562;18.414;2023-11-21T14:03:21;15.90;;;7.30;;
68192;SDS011;55012;47.562;18.414;2023-11-21T14:05:50;14.80;;;7.50;;
68192;SDS011;55012;47.562;18.414;2023-11-21T14:08:21;16.98;;;7.88;;
68192;SDS011;55012;47.562;18.414;2023-11-21T14:10:48;15.68;;;7.97;;
68192;SDS011;55012;47.562;18.414;2023-11-21T14:13:22;15.43;;;7.60;;
68192;SDS011;55012;47.562;18.414;2023-11-21T14:15:51;14.27;;;7.32;;
68192;SDS011;55012;47.562;18.414;2023-11-21T14:18:24;16.75;;;8.15;;
68192;SDS011;55012;47.562;18.414;2023-11-21T14:21:00;16.30;;;8.32;;
68192;SDS011;55012;47.562;18.414;2023-11-21T14:23:26;15.90;;;7.82;;
68192;SDS011;55012;47.562;18.414;2023-11-21T14:25:53;15.93;;;9.05;;
68192;SDS011;55012;47.562;18.414;2023-11-21T14:28:19;14.15;;;7.63;;
68192;SDS011;55012;47.562;18.414;2023-11-21T14:30:45;15.98;;;8.00;;
68192;SDS011;55012;47.562;18.414;2023-11-21T14:33:13;16.25;;;7.88;;
68192;SDS011;55012;47.562;18.414;2023-11-21T14:35:38;14.35;;;8.07;;